sensor_id;sensor_type;location;lat;lon;timestamp;temperature;humidity
27667;DHT22;15074;50.940;5.282;2022-08-21T00:01:00;14.40;99.90
27667;DHT22;15074;50.940;5.282;2022-08-21T00:03:27;14.30;99.90
27667;DHT22;15074;50.940;5.282;2022-08-21T00:05:53;14.20;99.90
27667;DHT22;15074;50.940;5.282;2022-08-21T00:08:19;14.20;99.90
27667;DHT22;15074;50.940;5.282;2022-08-21T00:10:46;14.20;99.90
27667;DHT22;15074;50.940;5.282;2022-08-21T00:13:12;14.20;99.90
27667;DHT22;15074;50.940;5.282;2022-08-21T00:15:40;14.30;99.90
27667;DHT22;15074;50.940;5.282;2022-08-21T00:18:08;14.40;99.90
27667;DHT22;15074;50.940;5.282;2022-08-21T00:20:34;14.50;99.90
27667;DHT22;15074;50.940;5.282;2022-08-21T00:23:00;14.20;99.90
27667;DHT22;15074;50.940;5.282;2022-08-21T00:25:26;14.00;99.90
27667;DHT22;15074;50.940;5.282;2022-08-21T00:27:52;14.00;99.90
27667;DHT22;15074;50.940;5.282;2022-08-21T00:30:20;13.90;99.90
27667;DHT22;15074;50.940;5.282;2022-08-21T00:32:46;13.90;99.90
27667;DHT22;15074;50.940;5.282;2022-08-21T00:35:15;13.90;99.90
27667;DHT22;15074;50.940;5.282;2022-08-21T00:37:41;13.90;99.90
27667;DHT22;15074;50.940;5.282;2022-08-21T00:40:10;13.90;99.90
27667;DHT22;15074;50.940;5.282;2022-08-21T00:42:36;13.90;99.90
27667;DHT22;15074;50.940;5.282;2022-08-21T00:45:03;13.90;99.90
27667;DHT22;15074;50.940;5.282;2022-08-21T00:47:29;13.70;99.90
27667;DHT22;15074;50.940;5.282;2022-08-21T00:49:55;13.80;99.90
27667;DHT22;15074;50.940;5.282;2022-08-21T00:52:25;13.70;99.90
27667;DHT22;15074;50.940;5.282;2022-08-21T00:54:54;13.80;99.90
27667;DHT22;15074;50.940;5.282;2022-08-21T00:57:26;13.70;99.90
27667;DHT22;15074;50.940;5.282;2022-08-21T00:59:54;13.70;99.90
27667;DHT22;15074;50.940;5.282;2022-08-21T01:02:21;13.70;99.90
27667;DHT22;15074;50.940;5.282;2022-08-21T01:04:47;13.70;99.90
27667;DHT22;15074;50.940;5.282;2022-08-21T01:07:13;13.70;99.90
27667;DHT22;15074;50.940;5.282;2022-08-21T01:09:40;13.50;99.90
27667;DHT22;15074;50.940;5.282;2022-08-21T01:12:06;13.50;99.90
27667;DHT22;15074;50.940;5.282;2022-08-21T01:14:32;13.50;99.90
27667;DHT22;15074;50.940;5.282;2022-08-21T01:16:59;13.50;99.90
27667;DHT22;15074;50.940;5.282;2022-08-21T01:19:26;13.60;99.90
27667;DHT22;15074;50.940;5.282;2022-08-21T01:21:52;13.50;99.90
27667;DHT22;15074;50.940;5.282;2022-08-21T01:24:19;13.40;99.90
27667;DHT22;15074;50.940;5.282;2022-08-21T01:26:46;13.40;99.90
27667;DHT22;15074;50.940;5.282;2022-08-21T01:29:20;13.30;99.90
27667;DHT22;15074;50.940;5.282;2022-08-21T01:31:48;13.20;99.90
27667;DHT22;15074;50.940;5.282;2022-08-21T01:34:14;13.10;99.90
27667;DHT22;15074;50.940;5.282;2022-08-21T01:36:42;13.10;99.90
27667;DHT22;15074;50.940;5.282;2022-08-21T01:39:07;13.30;99.90
27667;DHT22;15074;50.940;5.282;2022-08-21T01:41:33;13.30;99.90
27667;DHT22;15074;50.940;5.282;2022-08-21T01:43:59;13.30;99.90
27667;DHT22;15074;50.940;5.282;2022-08-21T01:46:25;13.30;99.90
27667;DHT22;15074;50.940;5.282;2022-08-21T01:48:50;13.20;99.90
27667;DHT22;15074;50.940;5.282;2022-08-21T01:51:16;13.20;99.90
27667;DHT22;15074;50.940;5.282;2022-08-21T01:53:42;13.20;99.90
27667;DHT22;15074;50.940;5.282;2022-08-21T01:56:10;13.20;99.90
27667;DHT22;15074;50.940;5.282;2022-08-21T01:58:36;13.20;99.90
27667;DHT22;15074;50.940;5.282;2022-08-21T02:01:02;13.20;99.90
27667;DHT22;15074;50.940;5.282;2022-08-21T02:03:29;13.20;99.90
27667;DHT22;15074;50.940;5.282;2022-08-21T02:05:55;13.20;99.90
27667;DHT22;15074;50.940;5.282;2022-08-21T02:08:22;13.30;99.90
27667;DHT22;15074;50.940;5.282;2022-08-21T02:10:49;13.30;99.90
27667;DHT22;15074;50.940;5.282;2022-08-21T02:13:16;13.10;99.90
27667;DHT22;15074;50.940;5.282;2022-08-21T02:15:42;13.00;99.90
27667;DHT22;15074;50.940;5.282;2022-08-21T02:18:08;12.80;99.90
27667;DHT22;15074;50.940;5.282;2022-08-21T02:20:37;12.70;99.90
27667;DHT22;15074;50.940;5.282;2022-08-21T02:23:04;12.60;99.90
27667;DHT22;15074;50.940;5.282;2022-08-21T02:25:31;12.60;99.90
27667;DHT22;15074;50.940;5.282;2022-08-21T02:27:57;12.60;99.90
27667;DHT22;15074;50.940;5.282;2022-08-21T02:30:30;12.60;99.90
27667;DHT22;15074;50.940;5.282;2022-08-21T02:32:56;12.70;99.90
27667;DHT22;15074;50.940;5.282;2022-08-21T02:35:23;12.70;99.90
27667;DHT22;15074;50.940;5.282;2022-08-21T02:37:52;12.80;99.90
27667;DHT22;15074;50.940;5.282;2022-08-21T02:40:21;12.80;99.90
27667;DHT22;15074;50.940;5.282;2022-08-21T02:42:47;12.90;99.90
27667;DHT22;15074;50.940;5.282;2022-08-21T02:45:13;12.80;99.90
27667;DHT22;15074;50.940;5.282;2022-08-21T02:47:40;12.80;99.90
27667;DHT22;15074;50.940;5.282;2022-08-21T02:50:07;12.80;99.90
27667;DHT22;15074;50.940;5.282;2022-08-21T02:52:33;12.70;99.90
27667;DHT22;15074;50.940;5.282;2022-08-21T02:54:59;12.70;99.90
27667;DHT22;15074;50.940;5.282;2022-08-21T02:57:24;12.80;99.90
27667;DHT22;15074;50.940;5.282;2022-08-21T02:59:50;12.70;99.90
27667;DHT22;15074;50.940;5.282;2022-08-21T03:02:16;12.80;99.90
27667;DHT22;15074;50.940;5.282;2022-08-21T03:04:41;12.80;99.90
27667;DHT22;15074;50.940;5.282;2022-08-21T03:07:07;12.80;99.90
27667;DHT22;15074;50.940;5.282;2022-08-21T03:09:32;12.80;99.90
27667;DHT22;15074;50.940;5.282;2022-08-21T03:11:58;12.80;99.90
27667;DHT22;15074;50.940;5.282;2022-08-21T03:14:24;12.70;99.90
27667;DHT22;15074;50.940;5.282;2022-08-21T03:16:49;12.70;99.90
27667;DHT22;15074;50.940;5.282;2022-08-21T03:19:15;12.60;99.90
27667;DHT22;15074;50.940;5.282;2022-08-21T03:21:41;12.70;99.90
27667;DHT22;15074;50.940;5.282;2022-08-21T03:24:06;12.60;99.90
27667;DHT22;15074;50.940;5.282;2022-08-21T03:26:32;12.50;99.90
27667;DHT22;15074;50.940;5.282;2022-08-21T03:28:58;12.60;99.90
27667;DHT22;15074;50.940;5.282;2022-08-21T03:31:25;12.50;99.90
27667;DHT22;15074;50.940;5.282;2022-08-21T03:33:56;12.60;99.90
27667;DHT22;15074;50.940;5.282;2022-08-21T03:36:22;12.70;99.90
27667;DHT22;15074;50.940;5.282;2022-08-21T03:38:48;12.70;99.90
27667;DHT22;15074;50.940;5.282;2022-08-21T03:41:13;12.70;99.90
27667;DHT22;15074;50.940;5.282;2022-08-21T03:43:39;12.70;99.90
27667;DHT22;15074;50.940;5.282;2022-08-21T03:46:06;12.70;99.90
27667;DHT22;15074;50.940;5.282;2022-08-21T03:48:33;12.70;99.90
27667;DHT22;15074;50.940;5.282;2022-08-21T03:51:00;12.60;99.90
27667;DHT22;15074;50.940;5.282;2022-08-21T03:53:25;12.60;99.90
27667;DHT22;15074;50.940;5.282;2022-08-21T03:55:52;12.60;99.90
27667;DHT22;15074;50.940;5.282;2022-08-21T03:58:21;12.60;99.90
27667;DHT22;15074;50.940;5.282;2022-08-21T04:00:51;12.60;99.90
27667;DHT22;15074;50.940;5.282;2022-08-21T04:03:17;12.50;99.90
27667;DHT22;15074;50.940;5.282;2022-08-21T04:05:43;12.60;99.90
27667;DHT22;15074;50.940;5.282;2022-08-21T04:08:11;12.60;99.90
27667;DHT22;15074;50.940;5.282;2022-08-21T04:10:38;12.60;99.90
27667;DHT22;15074;50.940;5.282;2022-08-21T04:13:05;12.60;99.90
27667;DHT22;15074;50.940;5.282;2022-08-21T04:15:31;12.60;99.90
27667;DHT22;15074;50.940;5.282;2022-08-21T04:17:56;12.70;99.90
27667;DHT22;15074;50.940;5.282;2022-08-21T04:20:22;12.70;99.90
27667;DHT22;15074;50.940;5.282;2022-08-21T04:22:49;12.70;99.90
27667;DHT22;15074;50.940;5.282;2022-08-21T04:25:16;12.60;99.90
27667;DHT22;15074;50.940;5.282;2022-08-21T04:27:43;12.60;99.90
27667;DHT22;15074;50.940;5.282;2022-08-21T04:30:11;12.50;99.90
27667;DHT22;15074;50.940;5.282;2022-08-21T04:32:38;12.50;99.90
27667;DHT22;15074;50.940;5.282;2022-08-21T04:35:08;12.60;99.90
27667;DHT22;15074;50.940;5.282;2022-08-21T04:37:35;12.60;99.90
27667;DHT22;15074;50.940;5.282;2022-08-21T04:40:01;12.40;99.90
27667;DHT22;15074;50.940;5.282;2022-08-21T04:42:27;12.30;99.90
27667;DHT22;15074;50.940;5.282;2022-08-21T04:44:54;12.20;99.90
27667;DHT22;15074;50.940;5.282;2022-08-21T04:47:21;12.20;99.90
27667;DHT22;15074;50.940;5.282;2022-08-21T04:49:47;12.30;99.90
27667;DHT22;15074;50.940;5.282;2022-08-21T04:52:18;12.40;99.90
27667;DHT22;15074;50.940;5.282;2022-08-21T04:54:45;12.60;99.90
27667;DHT22;15074;50.940;5.282;2022-08-21T04:57:13;12.70;99.90
27667;DHT22;15074;50.940;5.282;2022-08-21T04:59:41;12.60;99.90
27667;DHT22;15074;50.940;5.282;2022-08-21T05:02:08;12.60;99.90
27667;DHT22;15074;50.940;5.282;2022-08-21T05:04:37;12.60;99.90
27667;DHT22;15074;50.940;5.282;2022-08-21T05:07:06;12.60;99.90
27667;DHT22;15074;50.940;5.282;2022-08-21T05:09:34;12.80;99.90
27667;DHT22;15074;50.940;5.282;2022-08-21T05:12:01;12.90;99.90
27667;DHT22;15074;50.940;5.282;2022-08-21T05:14:27;13.00;99.90
27667;DHT22;15074;50.940;5.282;2022-08-21T05:16:53;13.10;99.90
27667;DHT22;15074;50.940;5.282;2022-08-21T05:19:18;13.10;99.90
27667;DHT22;15074;50.940;5.282;2022-08-21T05:21:46;13.20;99.90
27667;DHT22;15074;50.940;5.282;2022-08-21T05:24:12;13.20;99.90
27667;DHT22;15074;50.940;5.282;2022-08-21T05:26:38;13.50;99.90
27667;DHT22;15074;50.940;5.282;2022-08-21T05:29:04;14.10;99.90
27667;DHT22;15074;50.940;5.282;2022-08-21T05:31:30;15.00;99.90
27667;DHT22;15074;50.940;5.282;2022-08-21T05:33:56;15.80;99.90
27667;DHT22;15074;50.940;5.282;2022-08-21T05:36:22;16.70;99.90
27667;DHT22;15074;50.940;5.282;2022-08-21T05:38:48;17.20;99.90
27667;DHT22;15074;50.940;5.282;2022-08-21T05:41:13;17.80;99.90
27667;DHT22;15074;50.940;5.282;2022-08-21T05:43:39;18.60;99.90
27667;DHT22;15074;50.940;5.282;2022-08-21T05:46:06;19.30;99.90
27667;DHT22;15074;50.940;5.282;2022-08-21T05:48:32;19.90;99.90
27667;DHT22;15074;50.940;5.282;2022-08-21T05:51:04;19.90;99.90
27667;DHT22;15074;50.940;5.282;2022-08-21T05:53:30;20.00;99.90
27667;DHT22;15074;50.940;5.282;2022-08-21T05:55:56;20.40;99.90
27667;DHT22;15074;50.940;5.282;2022-08-21T05:58:21;20.10;99.90
27667;DHT22;15074;50.940;5.282;2022-08-21T06:00:50;20.30;99.90
27667;DHT22;15074;50.940;5.282;2022-08-21T06:03:24;21.20;99.90
27667;DHT22;15074;50.940;5.282;2022-08-21T06:05:49;22.10;99.90
27667;DHT22;15074;50.940;5.282;2022-08-21T06:08:16;21.30;99.90
27667;DHT22;15074;50.940;5.282;2022-08-21T06:10:43;21.70;99.90
27667;DHT22;15074;50.940;5.282;2022-08-21T06:13:09;22.80;99.90
27667;DHT22;15074;50.940;5.282;2022-08-21T06:15:35;23.20;99.90
27667;DHT22;15074;50.940;5.282;2022-08-21T06:18:01;23.40;99.90
27667;DHT22;15074;50.940;5.282;2022-08-21T06:20:27;23.40;99.90
27667;DHT22;15074;50.940;5.282;2022-08-21T06:22:53;22.60;99.90
27667;DHT22;15074;50.940;5.282;2022-08-21T06:25:18;23.40;99.90
27667;DHT22;15074;50.940;5.282;2022-08-21T06:27:44;24.50;99.90
27667;DHT22;15074;50.940;5.282;2022-08-21T06:30:10;25.80;99.90
27667;DHT22;15074;50.940;5.282;2022-08-21T06:32:36;25.90;99.90
27667;DHT22;15074;50.940;5.282;2022-08-21T06:35:03;26.50;99.90
27667;DHT22;15074;50.940;5.282;2022-08-21T06:37:29;26.80;99.90
27667;DHT22;15074;50.940;5.282;2022-08-21T06:39:55;27.50;99.90
27667;DHT22;15074;50.940;5.282;2022-08-21T06:42:20;27.80;99.90
27667;DHT22;15074;50.940;5.282;2022-08-21T06:44:46;27.00;99.90
27667;DHT22;15074;50.940;5.282;2022-08-21T06:47:13;26.40;99.90
27667;DHT22;15074;50.940;5.282;2022-08-21T06:49:39;27.00;99.90
27667;DHT22;15074;50.940;5.282;2022-08-21T06:52:09;26.80;99.90
27667;DHT22;15074;50.940;5.282;2022-08-21T06:54:36;26.80;99.90
27667;DHT22;15074;50.940;5.282;2022-08-21T06:57:01;26.30;99.90
27667;DHT22;15074;50.940;5.282;2022-08-21T06:59:27;26.10;99.90
27667;DHT22;15074;50.940;5.282;2022-08-21T07:01:53;25.90;99.90
27667;DHT22;15074;50.940;5.282;2022-08-21T07:04:18;25.80;99.90
27667;DHT22;15074;50.940;5.282;2022-08-21T07:06:45;25.60;99.90
27667;DHT22;15074;50.940;5.282;2022-08-21T07:09:10;25.90;99.90
27667;DHT22;15074;50.940;5.282;2022-08-21T07:11:37;26.30;99.90
27667;DHT22;15074;50.940;5.282;2022-08-21T07:14:03;27.40;99.90
27667;DHT22;15074;50.940;5.282;2022-08-21T07:16:29;27.20;99.90
27667;DHT22;15074;50.940;5.282;2022-08-21T07:18:55;27.30;99.90
27667;DHT22;15074;50.940;5.282;2022-08-21T07:21:21;28.50;99.90
27667;DHT22;15074;50.940;5.282;2022-08-21T07:23:49;28.90;99.90
27667;DHT22;15074;50.940;5.282;2022-08-21T07:26:16;28.10;99.90
27667;DHT22;15074;50.940;5.282;2022-08-21T07:28:43;27.70;99.90
27667;DHT22;15074;50.940;5.282;2022-08-21T07:31:10;26.90;99.90
27667;DHT22;15074;50.940;5.282;2022-08-21T07:33:36;27.60;99.90
27667;DHT22;15074;50.940;5.282;2022-08-21T07:36:02;28.10;99.90
27667;DHT22;15074;50.940;5.282;2022-08-21T07:38:28;28.10;99.90
27667;DHT22;15074;50.940;5.282;2022-08-21T07:40:55;28.70;99.90
27667;DHT22;15074;50.940;5.282;2022-08-21T07:43:22;28.50;99.90
27667;DHT22;15074;50.940;5.282;2022-08-21T07:45:48;28.60;99.90
27667;DHT22;15074;50.940;5.282;2022-08-21T07:48:15;27.50;99.90
27667;DHT22;15074;50.940;5.282;2022-08-21T07:50:41;26.80;99.90
27667;DHT22;15074;50.940;5.282;2022-08-21T07:53:07;27.00;99.90
27667;DHT22;15074;50.940;5.282;2022-08-21T07:55:33;27.20;99.90
27667;DHT22;15074;50.940;5.282;2022-08-21T07:57:59;27.90;99.90
27667;DHT22;15074;50.940;5.282;2022-08-21T08:00:26;27.10;99.90
27667;DHT22;15074;50.940;5.282;2022-08-21T08:02:53;28.20;99.90
27667;DHT22;15074;50.940;5.282;2022-08-21T08:05:23;28.40;99.90
27667;DHT22;15074;50.940;5.282;2022-08-21T08:07:49;28.80;99.90
27667;DHT22;15074;50.940;5.282;2022-08-21T08:10:15;28.70;99.90
27667;DHT22;15074;50.940;5.282;2022-08-21T08:12:42;29.60;99.80
27667;DHT22;15074;50.940;5.282;2022-08-21T08:15:11;29.10;99.20
27667;DHT22;15074;50.940;5.282;2022-08-21T08:17:37;28.50;99.90
27667;DHT22;15074;50.940;5.282;2022-08-21T08:20:05;28.40;99.90
27667;DHT22;15074;50.940;5.282;2022-08-21T08:22:30;28.50;99.90
27667;DHT22;15074;50.940;5.282;2022-08-21T08:24:56;28.70;99.90
27667;DHT22;15074;50.940;5.282;2022-08-21T08:27:22;28.00;99.90
27667;DHT22;15074;50.940;5.282;2022-08-21T08:29:48;27.90;99.90
27667;DHT22;15074;50.940;5.282;2022-08-21T08:32:14;28.50;99.90
27667;DHT22;15074;50.940;5.282;2022-08-21T08:34:40;29.30;98.70
27667;DHT22;15074;50.940;5.282;2022-08-21T08:37:08;30.10;97.70
27667;DHT22;15074;50.940;5.282;2022-08-21T08:39:33;29.60;97.60
27667;DHT22;15074;50.940;5.282;2022-08-21T08:42:07;29.30;97.10
27667;DHT22;15074;50.940;5.282;2022-08-21T08:44:40;29.80;97.50
27667;DHT22;15074;50.940;5.282;2022-08-21T08:47:06;30.90;95.90
27667;DHT22;15074;50.940;5.282;2022-08-21T08:49:40;30.70;94.70
27667;DHT22;15074;50.940;5.282;2022-08-21T08:55:22;30.10;95.30
27667;DHT22;15074;50.940;5.282;2022-08-21T08:57:50;30.30;94.70
27667;DHT22;15074;50.940;5.282;2022-08-21T09:00:18;30.10;95.40
27667;DHT22;15074;50.940;5.282;2022-08-21T09:02:45;30.40;94.60
27667;DHT22;15074;50.940;5.282;2022-08-21T09:05:23;30.70;93.80
27667;DHT22;15074;50.940;5.282;2022-08-21T09:10:38;30.50;93.50
27667;DHT22;15074;50.940;5.282;2022-08-21T09:13:12;30.70;93.20
27667;DHT22;15074;50.940;5.282;2022-08-21T09:29:54;30.40;92.70
27667;DHT22;15074;50.940;5.282;2022-08-21T09:32:28;30.10;92.80
27667;DHT22;15074;50.940;5.282;2022-08-21T09:35:02;29.60;93.40
27667;DHT22;15074;50.940;5.282;2022-08-21T09:37:32;30.10;93.20
27667;DHT22;15074;50.940;5.282;2022-08-21T09:40:00;30.30;92.70
27667;DHT22;15074;50.940;5.282;2022-08-21T09:42:31;29.30;92.90
27667;DHT22;15074;50.940;5.282;2022-08-21T09:45:26;29.30;92.70
27667;DHT22;15074;50.940;5.282;2022-08-21T09:47:52;30.10;92.20
27667;DHT22;15074;50.940;5.282;2022-08-21T09:50:24;30.20;92.00
27667;DHT22;15074;50.940;5.282;2022-08-21T09:52:56;30.50;92.20
27667;DHT22;15074;50.940;5.282;2022-08-21T09:58:18;30.80;90.80
27667;DHT22;15074;50.940;5.282;2022-08-21T10:00:44;31.20;89.40
27667;DHT22;15074;50.940;5.282;2022-08-21T10:03:14;31.50;89.80
27667;DHT22;15074;50.940;5.282;2022-08-21T10:05:49;32.00;88.30
27667;DHT22;15074;50.940;5.282;2022-08-21T10:08:20;32.50;87.00
27667;DHT22;15074;50.940;5.282;2022-08-21T10:10:51;31.90;86.30
27667;DHT22;15074;50.940;5.282;2022-08-21T10:16:28;31.70;88.40
27667;DHT22;15074;50.940;5.282;2022-08-21T10:19:26;31.60;89.70
27667;DHT22;15074;50.940;5.282;2022-08-21T10:22:32;31.90;87.50
27667;DHT22;15074;50.940;5.282;2022-08-21T10:25:13;30.90;89.90
27667;DHT22;15074;50.940;5.282;2022-08-21T10:30:32;30.30;91.00
27667;DHT22;15074;50.940;5.282;2022-08-21T10:36:21;29.80;91.10
27667;DHT22;15074;50.940;5.282;2022-08-21T10:41:27;29.90;91.50
27667;DHT22;15074;50.940;5.282;2022-08-21T11:00:47;28.60;94.40
27667;DHT22;15074;50.940;5.282;2022-08-21T11:03:23;30.70;91.00
27667;DHT22;15074;50.940;5.282;2022-08-21T11:08:39;30.50;90.70
27667;DHT22;15074;50.940;5.282;2022-08-21T11:11:22;30.70;90.60
27667;DHT22;15074;50.940;5.282;2022-08-21T11:13:51;31.40;90.30
27667;DHT22;15074;50.940;5.282;2022-08-21T11:16:33;32.70;86.80
27667;DHT22;15074;50.940;5.282;2022-08-21T11:19:17;33.50;85.60
27667;DHT22;15074;50.940;5.282;2022-08-21T11:30:08;31.60;86.50
27667;DHT22;15074;50.940;5.282;2022-08-21T11:36:08;32.00;85.70
27667;DHT22;15074;50.940;5.282;2022-08-21T11:38:41;33.70;81.80
27667;DHT22;15074;50.940;5.282;2022-08-21T11:44:23;34.10;79.80
27667;DHT22;15074;50.940;5.282;2022-08-21T11:47:17;34.40;80.00
27667;DHT22;15074;50.940;5.282;2022-08-21T11:52:26;33.30;79.60
27667;DHT22;15074;50.940;5.282;2022-08-21T11:55:02;33.50;79.20
27667;DHT22;15074;50.940;5.282;2022-08-21T11:57:35;34.10;76.80
27667;DHT22;15074;50.940;5.282;2022-08-21T12:00:07;33.00;78.70
27667;DHT22;15074;50.940;5.282;2022-08-21T12:02:51;32.70;80.00
27667;DHT22;15074;50.940;5.282;2022-08-21T12:05:36;31.90;80.70
27667;DHT22;15074;50.940;5.282;2022-08-21T12:10:59;30.50;86.40
27667;DHT22;15074;50.940;5.282;2022-08-21T12:13:27;31.30;83.60
27667;DHT22;15074;50.940;5.282;2022-08-21T12:16:09;32.30;81.90
27667;DHT22;15074;50.940;5.282;2022-08-21T12:18:35;32.70;80.20
27667;DHT22;15074;50.940;5.282;2022-08-21T12:24:51;32.30;80.50
27667;DHT22;15074;50.940;5.282;2022-08-21T12:26:54;31.80;81.20
27667;DHT22;15074;50.940;5.282;2022-08-21T12:29:29;31.60;80.70
27667;DHT22;15074;50.940;5.282;2022-08-21T12:34:40;33.60;79.30
27667;DHT22;15074;50.940;5.282;2022-08-21T12:39:54;32.80;79.30
27667;DHT22;15074;50.940;5.282;2022-08-21T12:42:30;33.40;77.40
27667;DHT22;15074;50.940;5.282;2022-08-21T12:45:02;33.90;75.50
27667;DHT22;15074;50.940;5.282;2022-08-21T12:50:24;34.70;73.30
27667;DHT22;15074;50.940;5.282;2022-08-21T12:53:09;33.90;74.60
27667;DHT22;15074;50.940;5.282;2022-08-21T12:55:41;33.30;76.10
27667;DHT22;15074;50.940;5.282;2022-08-21T12:58:06;33.90;74.50
27667;DHT22;15074;50.940;5.282;2022-08-21T13:00:49;33.20;73.70
27667;DHT22;15074;50.940;5.282;2022-08-21T13:03:15;31.00;78.20
27667;DHT22;15074;50.940;5.282;2022-08-21T13:05:41;29.40;79.90
27667;DHT22;15074;50.940;5.282;2022-08-21T13:08:10;28.10;84.50
27667;DHT22;15074;50.940;5.282;2022-08-21T13:10:40;27.40;86.60
27667;DHT22;15074;50.940;5.282;2022-08-21T13:13:26;28.60;86.40
27667;DHT22;15074;50.940;5.282;2022-08-21T13:16:02;29.50;83.90
27667;DHT22;15074;50.940;5.282;2022-08-21T13:18:31;29.50;83.60
27667;DHT22;15074;50.940;5.282;2022-08-21T13:21:12;29.80;82.80
27667;DHT22;15074;50.940;5.282;2022-08-21T13:23:38;30.20;82.20
27667;DHT22;15074;50.940;5.282;2022-08-21T13:26:19;30.90;81.20
27667;DHT22;15074;50.940;5.282;2022-08-21T13:28:45;30.70;81.00
27667;DHT22;15074;50.940;5.282;2022-08-21T13:31:22;31.20;80.30
27667;DHT22;15074;50.940;5.282;2022-08-21T13:33:50;31.90;79.00
27667;DHT22;15074;50.940;5.282;2022-08-21T13:36:41;32.70;77.60
27667;DHT22;15074;50.940;5.282;2022-08-21T13:39:09;33.90;75.50
27667;DHT22;15074;50.940;5.282;2022-08-21T13:41:39;33.00;75.10
27667;DHT22;15074;50.940;5.282;2022-08-21T13:46:41;32.50;75.20
27667;DHT22;15074;50.940;5.282;2022-08-21T13:49:09;32.40;75.60
27667;DHT22;15074;50.940;5.282;2022-08-21T13:51:37;31.90;76.40
27667;DHT22;15074;50.940;5.282;2022-08-21T13:54:15;32.40;76.40
27667;DHT22;15074;50.940;5.282;2022-08-21T13:56:43;32.00;75.90
27667;DHT22;15074;50.940;5.282;2022-08-21T13:59:09;32.20;75.70
27667;DHT22;15074;50.940;5.282;2022-08-21T14:01:39;31.90;76.50
27667;DHT22;15074;50.940;5.282;2022-08-21T14:04:33;30.80;78.80
27667;DHT22;15074;50.940;5.282;2022-08-21T14:07:01;31.10;79.20
27667;DHT22;15074;50.940;5.282;2022-08-21T14:09:30;31.10;78.70
27667;DHT22;15074;50.940;5.282;2022-08-21T14:11:58;31.50;77.60
27667;DHT22;15074;50.940;5.282;2022-08-21T14:14:30;31.60;76.00
27667;DHT22;15074;50.940;5.282;2022-08-21T14:17:04;30.50;78.50
27667;DHT22;15074;50.940;5.282;2022-08-21T14:19:45;29.90;79.90
27667;DHT22;15074;50.940;5.282;2022-08-21T14:22:40;29.90;80.20
27667;DHT22;15074;50.940;5.282;2022-08-21T14:25:26;30.00;80.00
27667;DHT22;15074;50.940;5.282;2022-08-21T14:30:30;29.10;80.50
27667;DHT22;15074;50.940;5.282;2022-08-21T14:32:57;28.90;80.80
27667;DHT22;15074;50.940;5.282;2022-08-21T14:35:24;28.20;83.30
27667;DHT22;15074;50.940;5.282;2022-08-21T14:37:51;28.70;82.60
27667;DHT22;15074;50.940;5.282;2022-08-21T14:40:20;28.60;83.40
27667;DHT22;15074;50.940;5.282;2022-08-21T14:42:49;28.80;83.40
27667;DHT22;15074;50.940;5.282;2022-08-21T14:45:25;28.80;83.60
27667;DHT22;15074;50.940;5.282;2022-08-21T14:47:51;28.90;82.20
27667;DHT22;15074;50.940;5.282;2022-08-21T14:50:17;28.90;83.30
27667;DHT22;15074;50.940;5.282;2022-08-21T14:52:43;28.20;84.20
27667;DHT22;15074;50.940;5.282;2022-08-21T14:55:11;28.20;85.00
27667;DHT22;15074;50.940;5.282;2022-08-21T14:57:40;28.50;85.80
27667;DHT22;15074;50.940;5.282;2022-08-21T15:00:09;28.50;84.50
27667;DHT22;15074;50.940;5.282;2022-08-21T15:02:36;28.70;84.50
27667;DHT22;15074;50.940;5.282;2022-08-21T15:05:02;28.40;84.40
27667;DHT22;15074;50.940;5.282;2022-08-21T15:07:27;28.10;86.20
27667;DHT22;15074;50.940;5.282;2022-08-21T15:09:53;28.00;86.20
27667;DHT22;15074;50.940;5.282;2022-08-21T15:12:19;27.90;87.50
27667;DHT22;15074;50.940;5.282;2022-08-21T15:14:45;27.80;88.70
27667;DHT22;15074;50.940;5.282;2022-08-21T15:17:11;27.80;86.70
27667;DHT22;15074;50.940;5.282;2022-08-21T15:19:38;27.90;87.70
27667;DHT22;15074;50.940;5.282;2022-08-21T15:22:05;28.00;86.20
27667;DHT22;15074;50.940;5.282;2022-08-21T15:24:31;28.20;85.90
27667;DHT22;15074;50.940;5.282;2022-08-21T15:27:00;27.90;86.00
27667;DHT22;15074;50.940;5.282;2022-08-21T15:29:26;28.00;87.10
27667;DHT22;15074;50.940;5.282;2022-08-21T15:31:58;28.10;86.70
27667;DHT22;15074;50.940;5.282;2022-08-21T15:34:26;27.80;87.90
27667;DHT22;15074;50.940;5.282;2022-08-21T15:36:53;28.00;87.40
27667;DHT22;15074;50.940;5.282;2022-08-21T15:39:19;27.80;86.70
27667;DHT22;15074;50.940;5.282;2022-08-21T15:41:46;27.40;88.60
27667;DHT22;15074;50.940;5.282;2022-08-21T15:44:12;27.20;89.60
27667;DHT22;15074;50.940;5.282;2022-08-21T15:46:39;27.40;89.00
27667;DHT22;15074;50.940;5.282;2022-08-21T15:49:06;27.40;89.70
27667;DHT22;15074;50.940;5.282;2022-08-21T15:51:32;27.40;89.80
27667;DHT22;15074;50.940;5.282;2022-08-21T15:53:58;27.40;88.40
27667;DHT22;15074;50.940;5.282;2022-08-21T15:56:33;27.40;88.70
27667;DHT22;15074;50.940;5.282;2022-08-21T15:59:13;27.60;87.90
27667;DHT22;15074;50.940;5.282;2022-08-21T16:01:39;27.50;87.30
27667;DHT22;15074;50.940;5.282;2022-08-21T16:04:06;27.10;89.40
27667;DHT22;15074;50.940;5.282;2022-08-21T16:06:32;27.10;89.60
27667;DHT22;15074;50.940;5.282;2022-08-21T16:08:59;27.00;90.00
27667;DHT22;15074;50.940;5.282;2022-08-21T16:11:26;26.90;89.60
27667;DHT22;15074;50.940;5.282;2022-08-21T16:13:52;27.00;90.10
27667;DHT22;15074;50.940;5.282;2022-08-21T16:16:20;26.90;90.60
27667;DHT22;15074;50.940;5.282;2022-08-21T16:18:47;26.90;90.70
27667;DHT22;15074;50.940;5.282;2022-08-21T16:21:13;26.70;90.90
27667;DHT22;15074;50.940;5.282;2022-08-21T16:23:39;26.60;91.10
27667;DHT22;15074;50.940;5.282;2022-08-21T16:26:07;26.50;91.20
27667;DHT22;15074;50.940;5.282;2022-08-21T16:28:34;26.40;91.50
27667;DHT22;15074;50.940;5.282;2022-08-21T16:31:01;26.50;91.20
27667;DHT22;15074;50.940;5.282;2022-08-21T16:33:38;26.20;91.60
27667;DHT22;15074;50.940;5.282;2022-08-21T16:36:06;26.10;92.20
27667;DHT22;15074;50.940;5.282;2022-08-21T16:38:32;26.20;92.60
27667;DHT22;15074;50.940;5.282;2022-08-21T16:40:58;25.90;92.70
27667;DHT22;15074;50.940;5.282;2022-08-21T16:43:28;25.90;93.10
27667;DHT22;15074;50.940;5.282;2022-08-21T16:45:56;26.00;92.90
27667;DHT22;15074;50.940;5.282;2022-08-21T16:48:22;26.00;92.30
27667;DHT22;15074;50.940;5.282;2022-08-21T16:50:49;26.10;92.20
27667;DHT22;15074;50.940;5.282;2022-08-21T16:53:15;25.90;92.30
27667;DHT22;15074;50.940;5.282;2022-08-21T16:55:42;26.00;92.80
27667;DHT22;15074;50.940;5.282;2022-08-21T16:58:13;26.00;92.50
27667;DHT22;15074;50.940;5.282;2022-08-21T17:00:41;26.00;92.60
27667;DHT22;15074;50.940;5.282;2022-08-21T17:03:14;25.90;93.20
27667;DHT22;15074;50.940;5.282;2022-08-21T17:05:40;26.10;93.20
27667;DHT22;15074;50.940;5.282;2022-08-21T17:08:06;26.10;92.90
27667;DHT22;15074;50.940;5.282;2022-08-21T17:10:33;25.80;93.50